Time;durP1;ratioP1;P1;durP2;ratioP2;P2;SDS_P1;SDS_P2;PMS_P1;PMS_P2;Temp;Humidity;BMP_temperature;BMP_pressure;BME280_temperature;BME280_humidity;BME280_pressure;Samples;Min_cycle;Max_cycle;Signal;HPM_P1;HPM_P2
2022/05/09 00:00:14;;;;;;;7.50;6.38;;;15.40;67.80;;;15.85;54.60;98324.50;4912897;29;20064;-41
2022/05/09 00:02:42;;;;;;;6.72;6.07;;;15.40;68.70;;;15.85;54.72;98334.41;4914982;29;20050;-40
2022/05/09 00:05:15;;;;;;;7.50;6.13;;;15.40;67.70;;;15.83;54.79;98325.72;4912712;29;20070;-40
2022/05/09 00:07:44;;;;;;;7.35;6.65;;;15.40;68.10;;;15.77;54.93;98323.75;4913561;29;20048;-40
2022/05/09 00:10:16;;;;;;;7.68;6.72;;;15.30;68.40;;;15.72;55.00;98325.09;4894685;29;20052;-41
2022/05/09 00:12:45;;;;;;;8.02;6.78;;;15.20;68.80;;;15.70;54.82;98329.78;4912442;29;20338;-40
2022/05/09 00:15:15;;;;;;;7.35;6.65;;;15.20;69.30;;;15.69;54.84;98327.28;4911179;29;20364;-40
2022/05/09 00:17:45;;;;;;;7.97;6.55;;;15.20;68.40;;;15.68;55.04;98322.91;4910133;29;20056;-40
2022/05/09 00:20:16;;;;;;;7.65;6.85;;;15.20;68.20;;;15.66;54.97;98333.00;4911655;29;20380;-40
2022/05/09 00:22:52;;;;;;;9.35;7.68;;;15.20;68.50;;;15.61;55.12;98321.97;4911789;29;20064;-40
2022/05/09 00:25:24;;;;;;;8.88;7.45;;;15.10;69.20;;;15.56;55.16;98322.47;4912382;29;20054;-40
2022/05/09 00:27:53;;;;;;;8.57;6.93;;;15.10;69.20;;;15.49;55.39;98319.69;4910901;29;20044;-40
2022/05/09 00:30:21;;;;;;;10.30;7.95;;;15.00;69.50;;;15.48;55.56;98319.84;4910325;29;20055;-40
2022/05/09 00:32:50;;;;;;;9.25;7.38;;;15.00;69.50;;;15.48;55.62;98322.53;4912541;29;20210;-40
2022/05/09 00:35:18;;;;;;;7.80;7.00;;;15.00;69.60;;;15.45;55.53;98323.72;4912152;29;20236;-40
2022/05/09 00:37:46;;;;;;;9.77;7.93;;;14.90;69.70;;;15.43;55.62;98315.03;4912383;29;20070;-41
2022/05/09 00:40:16;;;;;;;12.05;9.20;;;14.90;69.50;;;15.43;55.49;98320.38;4912141;29;20265;-41
2022/05/09 00:42:54;;;;;;;9.93;8.93;;;15.00;69.50;;;15.42;55.26;98317.88;4911180;29;20067;-41
2022/05/09 00:45:24;;;;;;;8.40;7.38;;;15.00;70.30;;;15.37;55.81;98323.75;4911412;29;20064;-41
2022/05/09 00:47:53;;;;;;;8.90;8.00;;;14.90;70.30;;;15.34;55.81;98326.81;4911472;29;20341;-41
2022/05/09 00:50:30;;;;;;;8.95;7.82;;;14.90;70.00;;;15.31;55.92;98319.09;4911160;29;20051;-40
2022/05/09 00:53:07;;;;;;;9.88;8.80;;;14.90;70.80;;;15.24;55.98;98324.31;4910888;29;20050;-40
2022/05/09 00:55:42;;;;;;;10.02;8.00;;;14.80;72.20;;;15.21;56.08;98319.31;4912001;29;20277;-41
2022/05/09 00:58:30;;;;;;;9.52;7.88;;;14.70;71.90;;;15.15;56.29;98318.16;4910989;29;20051;-41
2022/05/09 01:00:58;;;;;;;9.98;8.27;;;14.70;71.80;;;15.09;56.52;98318.03;4911218;29;20361;-41
2022/05/09 01:03:40;;;;;;;10.13;8.25;;;14.50;71.70;;;15.08;56.38;98310.97;4910898;29;20380;-40
2022/05/09 01:06:10;;;;;;;9.05;7.85;;;14.60;71.70;;;15.07;56.26;98326.22;4913999;29;20052;-40
2022/05/09 01:08:38;;;;;;;10.40;9.25;;;14.60;71.00;;;15.04;56.39;98331.94;4910529;29;20062;-40
2022/05/09 01:11:11;;;;;;;9.10;8.20;;;14.60;71.10;;;15.03;56.53;98326.75;4909709;29;20334;-40
2022/05/09 01:13:46;;;;;;;11.48;9.25;;;14.50;71.60;;;14.95;56.75;98328.44;4910095;29;20553;-40
2022/05/09 01:16:17;;;;;;;10.73;8.23;;;14.40;72.40;;;14.91;56.75;98327.13;4910824;29;20050;-40
2022/05/09 01:18:46;;;;;;;9.88;8.82;;;14.40;72.60;;;14.88;56.84;98324.78;4909492;29;20055;-40
2022/05/09 01:21:34;;;;;;;11.13;8.18;;;14.30;73.20;;;14.84;57.15;98328.00;4910000;29;20047;-41
2022/05/09 01:24:06;;;;;;;10.38;8.52;;;14.30;74.20;;;14.77;57.31;98328.69;4908851;29;20388;-40
2022/05/09 01:26:34;;;;;;;9.10;8.30;;;14.20;73.30;;;14.76;57.21;98331.53;4909978;29;20060;-40
2022/05/09 01:29:15;;;;;;;11.68;8.68;;;14.30;73.30;;;14.72;57.19;98330.19;4910312;29;20048;-40
2022/05/09 01:31:45;;;;;;;9.63;8.40;;;14.20;73.70;;;14.67;57.37;98322.66;4908520;29;20074;-41
2022/05/09 01:34:17;;;;;;;9.82;8.85;;;14.10;74.10;;;14.64;57.49;98320.34;4910297;29;20278;-41
2022/05/09 01:36:54;;;;;;;9.77;8.27;;;14.10;74.30;;;14.64;57.58;98316.81;4910068;29;20070;-41
2022/05/09 01:39:24;;;;;;;9.85;8.85;;;14.10;74.30;;;14.63;57.52;98318.63;4910284;29;20060;-40
2022/05/09 01:41:52;;;;;;;9.90;8.88;;;14.10;74.10;;;14.60;57.76;98319.00;4910050;29;20048;-40
2022/05/09 01:44:20;;;;;;;9.20;8.20;;;14.00;74.20;;;14.60;57.75;98316.31;4911268;29;20054;-40
2022/05/09 01:49:35;;;;;;;9.88;8.68;;;14.10;73.40;;;14.60;57.45;98321.69;4909723;29;20048;-40
2022/05/09 01:52:07;;;;;;;10.38;8.80;;;14.10;73.60;;;14.59;57.47;98320.00;4910263;29;20068;-42
2022/05/09 01:54:39;;;;;;;11.23;9.23;;;14.20;73.30;;;14.59;57.46;98317.31;4911223;29;20052;-40
2022/05/09 01:57:07;;;;;;;8.88;7.53;;;14.10;73.40;;;14.56;57.58;98318.50;4911422;29;20055;-40
2022/05/09 01:59:35;;;;;;;9.93;8.40;;;14.00;73.10;;;14.47;57.69;98322.16;4909653;29;20281;-40
2022/05/09 02:02:10;;;;;;;10.48;9.18;;;13.90;73.90;;;14.40;57.78;98321.16;4909777;29;20058;-40
2022/05/09 02:04:40;;;;;;;9.55;8.55;;;13.90;74.50;;;14.38;58.09;98323.16;4909160;29;20062;-40
2022/05/09 02:07:12;;;;;;;10.48;9.23;;;13.80;74.80;;;14.38;58.04;98323.16;4908846;29;20072;-40
2022/05/09 02:09:46;;;;;;;11.63;9.30;;;13.80;74.60;;;14.38;58.08;98324.03;4909908;29;20070;-40
2022/05/09 02:12:16;;;;;;;12.07;10.38;;;13.90;74.90;;;14.37;57.95;98329.53;4909757;29;20060;-40
2022/05/09 02:14:46;;;;;;;10.27;9.25;;;13.80;74.30;;;14.35;58.05;98320.84;4912222;29;20250;-40
2022/05/09 02:17:15;;;;;;;10.15;8.88;;;13.90;74.50;;;14.37;57.96;98327.69;4909992;29;20250;-40
2022/05/09 02:19:43;;;;;;;9.50;8.30;;;13.90;74.10;;;14.38;58.02;98332.06;4910390;29;20063;-40
2022/05/09 02:22:11;;;;;;;13.50;8.90;;;13.90;74.00;;;14.38;58.09;98336.56;4910301;29;20265;-41
2022/05/09 02:24:40;;;;;;;10.50;9.13;;;13.90;73.80;;;14.33;57.89;98331.72;4909329;29;20064;-41
2022/05/09 02:27:09;;;;;;;11.25;8.70;;;13.80;73.60;;;14.31;58.07;98331.06;4908887;29;20051;-41
2022/05/09 02:29:39;;;;;;;10.88;9.10;;;13.80;74.00;;;14.32;57.94;98330.03;4908262;29;20058;-41
2022/05/09 02:32:09;;;;;;;10.77;9.50;;;13.90;73.80;;;14.29;57.97;98333.06;4909306;29;20065;-41
2022/05/09 02:34:38;;;;;;;13.07;9.05;;;13.80;73.60;;;14.28;58.00;98328.69;4910752;29;20048;-40
2022/05/09 02:37:06;;;;;;;10.65;9.27;;;13.80;73.60;;;14.27;57.91;98331.53;4909972;29;20052;-41
2022/05/09 02:39:34;;;;;;;10.38;8.90;;;13.80;73.80;;;14.27;57.99;98331.53;4892299;29;20277;-41
2022/05/09 02:42:02;;;;;;;9.77;8.63;;;13.80;73.40;;;14.26;57.95;98332.56;4911102;29;20380;-41
2022/05/09 02:44:36;;;;;;;10.75;9.23;;;13.80;73.30;;;14.23;57.86;98331.06;4913370;29;20365;-41
2022/05/09 02:47:05;;;;;;;11.15;9.68;;;13.80;73.10;;;14.20;57.87;98334.06;4913492;29;20056;-41
2022/05/09 02:49:32;;;;;;;11.40;9.15;;;13.80;73.50;;;14.18;57.82;98331.53;4913162;29;20058;-40
2022/05/09 02:52:02;;;;;;;10.77;8.95;;;13.80;74.20;;;14.17;57.96;98329.88;4913023;29;20056;-40
2022/05/09 02:54:30;;;;;;;11.38;9.27;;;13.80;73.30;;;14.14;57.77;98334.72;4915733;29;20040;-40
2022/05/09 02:56:58;;;;;;;10.73;9.25;;;13.70;73.30;;;14.12;58.00;98332.22;4912756;29;20055;-40
2022/05/09 02:59:29;;;;;;;10.25;9.07;;;13.70;73.60;;;14.08;58.08;98327.38;4911981;29;20062;-40
2022/05/09 03:01:57;;;;;;;12.48;9.95;;;13.60;74.10;;;14.04;58.30;98334.06;4912716;29;20067;-40
2022/05/09 03:04:40;;;;;;;10.48;9.48;;;13.50;74.60;;;14.02;58.45;98331.56;4912900;29;20442;-40
2022/05/09 03:07:15;;;;;;;13.52;8.95;;;13.50;74.50;;;13.98;58.27;98328.38;4912475;29;20141;-40
2022/05/09 03:09:47;;;;;;;10.80;8.68;;;13.50;74.80;;;13.96;58.35;98329.53;4911673;29;20139;-40
2022/05/09 03:12:18;;;;;;;11.18;8.93;;;13.50;74.50;;;13.94;58.28;98324.34;4912860;29;20063;-40
2022/05/09 03:14:47;;;;;;;11.23;9.20;;;13.50;74.40;;;13.94;58.22;98326.19;4912892;29;20078;-41
2022/05/09 03:17:16;;;;;;;10.45;9.02;;;13.50;74.40;;;13.93;58.29;98325.34;4912888;29;20079;-41
2022/05/09 03:19:44;;;;;;;12.32;9.05;;;13.50;74.50;;;13.91;58.17;98331.88;4911510;29;20059;-41
2022/05/09 03:22:13;;;;;;;9.00;8.05;;;13.40;74.30;;;13.89;58.37;98323.19;4915103;29;20064;-41
2022/05/09 03:24:41;;;;;;;10.90;9.52;;;13.40;74.40;;;13.87;58.48;98331.38;4912504;29;20376;-41
2022/05/09 03:27:12;;;;;;;11.60;9.68;;;13.40;74.30;;;13.83;58.29;98323.84;4912493;29;20066;-41
2022/05/09 03:29:39;;;;;;;11.18;9.95;;;13.40;74.20;;;13.82;58.31;98324.81;4911448;29;20052;-41
2022/05/09 03:32:08;;;;;;;11.60;10.35;;;13.30;74.70;;;13.77;58.49;98336.03;4911787;29;20052;-41
2022/05/09 03:34:36;;;;;;;12.65;9.93;;;13.20;75.10;;;13.69;58.57;98326.16;4912825;29;20462;-40
2022/05/09 03:37:08;;;;;;;10.05;9.00;;;13.10;75.40;;;13.68;58.60;98329.00;4913170;29;20396;-41
2022/05/09 03:39:36;;;;;;;12.48;9.45;;;13.10;75.30;;;13.59;58.50;98334.34;4912732;29;20060;-40
2022/05/09 03:42:06;;;;;;;12.32;9.68;;;13.00;75.60;;;13.53;58.92;98335.00;4912352;29;20066;-41
2022/05/09 03:44:34;;;;;;;11.93;9.35;;;12.90;76.10;;;13.52;58.94;98333.31;4912715;29;20058;-41
2022/05/09 03:47:02;;;;;;;12.45;9.93;;;13.00;75.90;;;13.54;58.82;98335.81;4912061;29;20074;-41
2022/05/09 03:49:30;;;;;;;13.00;9.35;;;13.00;75.70;;;13.52;58.80;98330.63;4913493;29;20051;-41
2022/05/09 03:51:58;;;;;;;11.57;9.77;;;13.00;75.30;;;13.49;58.86;98332.78;4910753;29;20060;-40
2022/05/09 03:54:26;;;;;;;10.88;9.68;;;12.90;75.90;;;13.44;59.08;98327.94;4911491;29;20059;-40
2022/05/09 03:56:54;;;;;;;13.68;9.63;;;12.90;76.30;;;13.45;59.12;98331.44;4912230;29;20068;-41
2022/05/09 03:59:23;;;;;;;11.65;9.70;;;13.00;76.00;;;13.41;59.02;98336.28;4912073;29;20052;-40
2022/05/09 04:01:51;;;;;;;11.77;10.38;;;12.90;75.80;;;13.43;58.89;98333.44;4910864;29;20081;-41
2022/05/09 04:04:19;;;;;;;11.80;9.75;;;12.90;75.70;;;13.41;58.89;98335.44;4913105;29;20048;-40
2022/05/09 04:06:51;;;;;;;11.40;9.90;;;12.90;76.00;;;13.39;59.18;98338.28;4893841;29;20070;-40
2022/05/09 04:09:19;;;;;;;13.48;10.32;;;12.90;76.30;;;13.36;59.11;98334.09;4911997;29;20040;-40
2022/05/09 04:11:48;;;;;;;11.50;9.07;;;12.90;76.20;;;13.38;59.18;98340.13;4911752;29;20060;-40
2022/05/09 04:16:49;;;;;;;11.68;9.80;;;12.90;76.00;;;13.40;58.92;98342.63;4911504;29;20048;-40
2022/05/09 04:17:04;;;;;;;11.52;10.32;;;13.00;75.50;;;13.41;59.06;98340.78;4910430;29;20052;-41
2022/05/09 04:19:35;;;;;;;12.15;9.23;;;13.00;75.50;;;13.42;58.96;98342.47;4910944;29;20060;-40
2022/05/09 04:22:03;;;;;;;11.60;9.63;;;13.00;75.50;;;13.43;59.28;98344.13;4911270;29;20056;-40
2022/05/09 04:24:31;;;;;;;12.35;9.60;;;13.00;75.60;;;13.43;59.43;98344.13;4911807;29;20056;-40
2022/05/09 04:27:01;;;;;;;13.82;11.77;;;13.00;75.90;;;13.42;59.59;98347.81;4911689;29;20265;-40
2022/05/09 04:29:28;;;;;;;11.82;10.50;;;12.90;76.50;;;13.35;59.76;98347.63;4912053;29;20302;-40
2022/05/09 04:31:56;;;;;;;12.95;10.32;;;12.90;77.10;;;13.35;59.86;98344.94;4912059;29;20113;-40
2022/05/09 04:34:24;;;;;;;13.52;10.52;;;12.90;77.20;;;13.37;59.86;98345.63;4911585;29;20315;-40
2022/05/09 04:36:52;;;;;;;14.52;11.77;;;13.00;77.10;;;13.39;59.91;98349.81;4911356;29;20060;-40
2022/05/09 04:39:21;;;;;;;12.05;10.52;;;13.00;77.30;;;13.42;60.21;98355.84;4911282;29;20059;-40
2022/05/09 04:41:50;;;;;;;13.95;11.60;;;13.00;77.50;;;13.44;60.46;98348.50;4910969;29;20066;-40
2022/05/09 04:44:21;;;;;;;14.02;12.25;;;13.00;78.10;;;13.46;60.46;98351.84;4911490;29;20058;-40
2022/05/09 04:46:48;;;;;;;12.90;10.68;;;13.10;78.60;;;13.49;60.47;98357.72;4911247;29;20048;-40
2022/05/09 04:49:16;;;;;;;12.25;10.98;;;13.10;78.80;;;13.52;60.70;98359.22;4911804;29;20048;-40
2022/05/09 04:51:44;;;;;;;13.82;11.40;;;13.20;79.10;;;13.55;60.82;98359.75;4912357;29;20362;-40
2022/05/09 04:54:12;;;;;;;14.52;11.48;;;13.20;79.30;;;13.58;60.92;98359.41;4893670;29;20079;-40
2022/05/09 04:56:40;;;;;;;14.50;10.75;;;13.30;79.70;;;13.60;60.73;98361.91;4910483;29;20048;-40
2022/05/09 04:59:11;;;;;;;15.00;10.95;;;13.30;79.90;;;13.63;61.00;98368.75;4909381;29;20070;-40
2022/05/09 05:01:39;;;;;;;14.35;11.48;;;13.30;79.90;;;13.64;61.22;98365.94;4911699;29;20062;-41
2022/05/09 05:04:09;;;;;;;12.00;10.57;;;13.40;80.00;;;13.66;61.13;98363.09;4910152;29;20044;-41
2022/05/09 05:06:36;;;;;;;13.90;10.82;;;13.40;80.30;;;13.68;61.48;98366.44;4893052;29;20066;-40
2022/05/09 05:09:04;;;;;;;16.08;11.60;;;13.40;80.50;;;13.71;61.39;98368.81;4909276;29;20250;-40
2022/05/09 05:11:32;;;;;;;13.15;10.98;;;13.40;80.90;;;13.72;61.37;98375.81;4910373;29;20360;-40
2022/05/09 05:14:00;;;;;;;13.02;11.45;;;13.50;81.10;;;13.74;61.56;98374.66;4910968;29;20044;-40
2022/05/09 05:19:14;;;;;;;13.18;11.50;;;13.50;81.30;;;13.79;61.67;98380.34;4911812;29;20066;-40
2022/05/09 05:21:43;;;;;;;14.27;10.70;;;13.50;81.40;;;13.81;61.85;98377.53;4911046;29;20063;-40
2022/05/09 05:24:13;;;;;;;15.25;12.43;;;13.50;81.50;;;13.84;61.89;98371.00;4909978;29;20253;-40
2022/05/09 05:26:40;;;;;;;14.73;12.30;;;13.60;81.70;;;13.86;61.94;98377.88;4925854;29;20246;-40
2022/05/09 05:29:08;;;;;;;14.40;11.38;;;13.60;81.90;;;13.90;61.90;98376.53;4910002;29;20389;-40
2022/05/09 05:31:41;;;;;;;14.32;12.10;;;13.60;82.00;;;13.93;62.00;98375.38;4909225;29;20047;-40
2022/05/09 05:34:10;;;;;;;13.95;11.90;;;13.70;82.30;;;13.95;61.92;98384.06;4909479;29;20358;-41
2022/05/09 05:36:38;;;;;;;12.55;11.00;;;13.70;82.30;;;13.98;61.96;98389.94;4910539;29;20059;-41
2022/05/09 05:39:07;;;;;;;11.82;10.73;;;13.70;82.30;;;14.01;61.95;98391.44;4910160;29;20059;-40
2022/05/09 05:41:37;;;;;;;14.38;11.93;;;13.70;82.10;;;14.03;62.10;98388.59;4910706;29;20062;-39
2022/05/09 05:44:08;;;;;;;13.25;10.98;;;13.70;82.10;;;14.05;61.92;98390.09;4926060;29;20346;-40
2022/05/09 05:46:36;;;;;;;14.73;12.48;;;13.80;82.30;;;14.09;62.07;98387.94;4909718;29;20254;-40
2022/05/09 05:49:04;;;;;;;14.50;12.07;;;13.80;82.40;;;14.11;62.32;98385.94;4910237;29;20059;-39
2022/05/09 05:51:32;;;;;;;15.05;11.05;;;13.80;82.50;;;14.10;62.53;98392.31;4909169;29;20050;-40
2022/05/09 05:54:00;;;;;;;12.93;10.90;;;13.90;82.50;;;14.13;62.42;98398.16;4910332;29;20052;-40
2022/05/09 05:56:28;;;;;;;13.30;11.90;;;14.00;82.60;;;14.18;62.59;98401.16;4911065;29;20054;-39
2022/05/09 05:58:56;;;;;;;15.35;12.57;;;14.00;82.80;;;14.21;62.29;98401.84;4910885;29;20250;-40
2022/05/09 06:01:24;;;;;;;16.52;11.80;;;14.00;83.20;;;14.24;62.58;98406.88;4909395;29;20055;-40
2022/05/09 06:03:52;;;;;;;13.20;11.38;;;14.00;84.30;;;14.25;62.56;98408.53;4910237;29;20052;-40
2022/05/09 06:06:20;;;;;;;13.05;11.27;;;14.00;83.50;;;14.26;62.56;98408.38;4910528;29;20297;-40
2022/05/09 06:08:48;;;;;;;13.15;11.75;;;14.00;83.70;;;14.29;62.65;98407.22;4910371;29;20368;-40
2022/05/09 06:11:15;;;;;;;15.23;12.57;;;14.00;84.70;;;14.30;62.62;98407.03;4909397;29;20067;-40
2022/05/09 06:13:43;;;;;;;16.42;11.93;;;14.00;84.10;;;14.32;62.79;98412.22;4909919;29;20060;-40
2022/05/09 06:16:11;;;;;;;15.82;11.82;;;14.10;84.10;;;14.36;62.78;98414.44;4907743;29;20439;-40
2022/05/09 06:18:39;;;;;;;14.25;11.38;;;14.20;83.70;;;14.41;62.90;98419.28;4913914;29;20459;-40
2022/05/09 06:21:07;;;;;;;15.50;11.45;;;14.20;83.60;;;14.42;62.97;98415.56;4913584;29;20060;-40
2022/05/09 06:23:35;;;;;;;15.93;12.55;;;14.30;83.60;;;14.45;63.12;98417.09;4913085;29;20051;-40
2022/05/09 06:26:03;;;;;;;15.50;11.93;;;14.40;83.40;;;14.51;62.95;98414.59;4913843;29;20052;-40
2022/05/09 06:28:31;;;;;;;17.67;11.65;;;14.40;83.40;;;14.56;62.93;98414.09;4913480;29;20082;-40
2022/05/09 06:30:59;;;;;;;23.75;12.50;;;14.50;83.30;;;14.59;63.12;98416.47;4895412;29;20059;-40
2022/05/09 06:33:27;;;;;;;19.42;13.65;;;14.50;83.20;;;14.64;62.97;98416.78;4914004;29;20342;-40
2022/05/09 06:35:55;;;;;;;25.02;13.80;;;14.50;83.20;;;14.69;63.01;98422.47;4913855;29;20048;-40
2022/05/09 06:38:25;;;;;;;17.75;12.25;;;14.60;83.20;;;14.73;62.84;98417.63;4913253;29;20291;-40
2022/05/09 06:40:54;;;;;;;14.40;12.30;;;14.60;83.20;;;14.77;62.88;98417.13;4913269;29;20062;-40
2022/05/09 06:43:23;;;;;;;14.57;11.48;;;14.70;83.10;;;14.84;62.81;98419.97;4909942;29;20346;-40
2022/05/09 06:45:51;;;;;;;14.57;12.13;;;14.80;82.60;;;14.89;62.70;98417.63;4923886;29;20048;-40
2022/05/09 06:48:21;;;;;;;16.50;10.75;;;14.80;82.20;;;14.92;62.63;98419.94;4924835;29;20052;-40
2022/05/09 06:50:49;;;;;;;14.85;12.02;;;14.80;82.00;;;14.95;62.51;98422.28;4924411;29;20056;-40
2022/05/09 06:53:17;;;;;;;12.80;11.50;;;14.90;81.80;;;15.00;62.42;98427.13;4922834;29;20383;-40
2022/05/09 06:55:49;;;;;;;12.88;11.38;;;14.90;81.70;;;15.00;62.59;98420.94;4923157;29;20047;-40
2022/05/09 06:58:24;;;;;;;15.55;10.88;;;14.90;81.70;;;15.03;62.50;98428.66;4923909;29;20328;-40
2022/05/09 07:00:53;;;;;;;12.95;11.35;;;15.00;81.50;;;15.08;62.41;98435.19;4923359;29;20055;-40
2022/05/09 07:03:21;;;;;;;14.88;11.35;;;15.00;81.20;;;15.13;62.44;98422.06;4924315;29;20052;-40
2022/05/09 07:05:51;;;;;;;13.60;12.07;;;15.10;81.00;;;15.20;62.46;98427.63;4923741;29;20062;-40
2022/05/09 07:08:22;;;;;;;12.68;11.05;;;15.10;81.00;;;15.23;62.13;98421.06;4925388;29;20055;-40
2022/05/09 07:10:51;;;;;;;13.90;10.93;;;15.10;80.90;;;15.26;62.13;98431.44;4911382;29;20242;-40
2022/05/09 07:14:05;;;;;;;13.25;10.80;;;15.20;80.50;;;15.29;62.31;98421.19;4927852;29;20044;-40
2022/05/09 07:16:33;;;;;;;12.20;9.35;;;15.30;80.50;;;15.32;62.13;98422.72;4927807;29;20044;-40
2022/05/09 07:19:01;;;;;;;11.70;10.50;;;15.30;80.50;;;15.38;62.13;98422.00;4926122;29;20231;-40
2022/05/09 07:21:30;;;;;;;14.70;11.15;;;15.40;80.10;;;15.42;62.26;98425.19;4927875;29;20051;-40
2022/05/09 07:23:59;;;;;;;14.82;10.43;;;15.50;79.80;;;15.47;62.04;98421.00;4926865;29;20062;-40
2022/05/09 07:26:27;;;;;;;12.73;11.35;;;15.50;79.50;;;15.52;61.99;98423.97;4926330;29;20249;-39
2022/05/09 07:28:55;;;;;;;12.98;10.80;;;15.50;79.50;;;15.57;61.87;98420.78;4923485;29;20055;-39
2022/05/09 07:31:23;;;;;;;14.00;10.32;;;15.60;79.30;;;15.63;61.91;98422.75;4923210;29;20058;-40
2022/05/09 07:33:51;;;;;;;14.30;10.45;;;15.70;79.30;;;15.67;62.05;98426.75;4920223;29;20356;-39
2022/05/09 07:36:19;;;;;;;12.02;10.88;;;15.70;78.90;;;15.69;62.02;98429.28;4913201;29;20382;-40
2022/05/09 07:38:47;;;;;;;12.35;10.77;;;15.80;78.90;;;15.75;61.93;98424.06;4923285;29;20074;-39
2022/05/09 07:41:14;;;;;;;13.63;11.00;;;15.80;78.60;;;15.81;61.90;98422.53;4924782;29;20054;-40
2022/05/09 07:43:42;;;;;;;15.00;11.15;;;15.90;78.50;;;15.86;61.77;98430.06;4926648;29;20062;-40
2022/05/09 07:46:11;;;;;;;12.38;10.27;;;15.90;78.40;;;15.90;61.62;98426.84;4927215;29;20443;-40
2022/05/09 07:49:00;;;;;;;13.30;10.95;;;16.00;77.80;;;15.94;61.56;98430.03;4927637;29;20079;-39
2022/05/09 07:51:27;;;;;;;18.27;12.30;;;16.00;77.70;;;15.98;61.75;98434.03;4922999;29;20078;-39
2022/05/09 07:53:55;;;;;;;11.70;10.48;;;16.00;77.80;;;16.02;61.44;98432.66;4923545;29;20082;-39
2022/05/09 07:56:23;;;;;;;13.10;10.77;;;16.10;77.80;;;16.07;61.40;98427.59;4922069;29;20420;-40
2022/05/09 07:58:51;;;;;;;12.18;10.88;;;16.10;77.30;;;16.11;61.36;98431.59;4920916;29;20054;-39
2022/05/09 08:01:18;;;;;;;17.05;10.82;;;16.20;77.20;;;16.14;61.61;98431.22;4928399;29;20047;-39
2022/05/09 08:03:46;;;;;;;12.35;10.57;;;16.30;77.20;;;16.21;61.30;98434.06;4927695;29;20082;-40
2022/05/09 08:06:14;;;;;;;11.80;10.55;;;16.30;76.80;;;16.21;61.31;98436.75;4928670;29;20059;-40
2022/05/09 08:08:43;;;;;;;12.43;10.95;;;16.30;76.60;;;16.26;61.27;98431.66;4926941;29;20066;-39
2022/05/09 08:11:12;;;;;;;12.10;10.23;;;16.40;76.30;;;16.34;60.70;98436.13;4924373;29;20070;-39
2022/05/09 08:13:42;;;;;;;12.80;10.32;;;16.40;75.90;;;16.39;60.73;98435.63;4924202;29;20060;-40
2022/05/09 08:16:11;;;;;;;14.85;11.43;;;16.50;75.70;;;16.44;60.72;98433.22;4926365;29;20066;-40
2022/05/09 08:18:40;;;;;;;12.13;10.23;;;16.50;76.60;;;16.49;60.59;98430.84;4923756;29;20295;-40
2022/05/09 08:21:09;;;;;;;11.52;10.32;;;16.60;75.00;;;16.49;60.63;98445.09;4935704;29;20058;-40
2022/05/09 08:23:45;;;;;;;14.25;10.02;;;16.60;75.40;;;16.56;60.68;98437.16;4933285;29;20056;-39
2022/05/09 08:26:13;;;;;;;12.70;10.18;;;16.60;75.30;;;16.62;60.63;98435.63;4933398;29;20058;-39
2022/05/09 08:28:42;;;;;;;12.25;10.45;;;16.70;75.30;;;16.69;60.35;98441.91;4918197;29;20062;-39
2022/05/09 08:31:10;;;;;;;13.38;9.85;;;16.80;74.70;;;16.74;59.89;98437.69;4913992;29;20047;-39
2022/05/09 08:33:38;;;;;;;17.05;10.38;;;16.80;74.10;;;16.79;59.82;98439.84;4915085;29;20039;-40
2022/05/09 08:36:09;;;;;;;15.35;9.90;;;16.90;73.90;;;16.85;59.89;98443.69;4914342;29;20055;-40
2022/05/09 08:38:37;;;;;;;10.10;9.10;;;16.90;73.80;;;16.89;59.61;98450.38;4912929;29;20245;-40
2022/05/09 08:41:06;;;;;;;11.85;10.25;;;17.00;73.50;;;16.93;59.41;98447.13;4914159;29;20375;-40
2022/05/09 08:43:55;;;;;;;15.82;10.18;;;17.10;73.00;;;16.97;59.31;98439.53;4911725;29;20048;-40
2022/05/09 08:46:39;;;;;;;12.27;10.45;;;17.10;72.90;;;16.96;59.44;98442.41;4913670;29;20052;-40
2022/05/09 08:49:44;;;;;;;13.18;10.20;;;17.00;72.90;;;17.02;59.64;98441.66;4912328;29;20068;-40
2022/05/09 08:52:30;;;;;;;12.27;10.23;;;17.20;73.60;;;17.08;59.02;98441.78;4912385;29;20216;-40
2022/05/09 08:55:05;;;;;;;11.70;9.35;;;17.30;72.60;;;17.19;59.17;98442.34;4912063;29;20050;-40
2022/05/09 08:57:45;;;;;;;12.05;10.15;;;17.30;72.60;;;17.22;58.90;98444.69;4912460;29;20055;-40
2022/05/09 09:00:17;;;;;;;12.57;11.13;;;17.40;71.90;;;17.25;58.86;98437.06;4926986;29;20277;-40
2022/05/09 09:03:10;;;;;;;13.20;10.45;;;17.40;72.60;;;17.28;58.32;98435.84;4927025;29;20446;-40
2022/05/09 09:05:44;;;;;;;11.98;9.90;;;17.40;71.80;;;17.35;58.38;98435.94;4926080;29;20055;-40
2022/05/09 09:08:17;;;;;;;12.70;9.68;;;17.50;71.60;;;17.40;59.05;98431.69;4913719;29;20133;-40
2022/05/09 09:11:15;;;;;;;11.25;9.70;;;17.50;71.90;;;17.45;58.60;98442.72;4910515;29;20062;-40
2022/05/09 09:14:01;;;;;;;11.55;9.30;;;17.60;71.30;;;17.50;58.51;98434.09;4911883;29;20245;-40
2022/05/09 09:17:03;;;;;;;11.63;9.73;;;17.60;71.30;;;17.56;58.13;98441.41;4912827;29;20048;-40
2022/05/09 09:20:18;;;;;;;10.10;9.10;;;17.70;71.00;;;17.66;58.43;98444.69;4910191;29;20063;-40
2022/05/09 09:22:57;;;;;;;12.50;9.98;;;17.80;70.80;;;17.73;58.18;98443.91;4871566;29;20061;-40
2022/05/09 09:26:00;;;;;;;11.63;8.80;;;17.90;70.30;;;17.75;57.88;98441.88;4906712;29;20247;-40
2022/05/09 09:28:52;;;;;;;13.23;9.68;;;17.90;70.10;;;17.80;57.08;98448.38;4906087;29;20074;-40
2022/05/09 09:31:34;;;;;;;14.85;10.07;;;18.00;69.10;;;17.86;57.74;98444.94;4909234;29;20048;-40
2022/05/09 09:34:32;;;;;;;11.93;10.68;;;18.00;69.50;;;17.83;57.05;98436.38;4929360;29;20044;-40
2022/05/09 09:37:13;;;;;;;12.07;8.98;;;18.10;68.90;;;17.91;57.67;98444.38;4911640;29;20056;-40
2022/05/09 09:39:41;;;;;;;11.43;10.25;;;18.10;69.70;;;17.98;57.50;98439.91;4911624;29;20055;-40
2022/05/09 09:42:09;;;;;;;10.65;9.52;;;18.20;69.70;;;18.02;57.07;98435.81;4911344;29;20064;-41
2022/05/09 09:44:44;;;;;;;9.77;8.07;;;18.20;68.90;;;18.08;57.27;98426.97;4911981;29;20052;-40
2022/05/09 09:47:24;;;;;;;11.02;9.35;;;18.20;68.90;;;18.15;57.30;98432.44;4910304;29;20056;-41
2022/05/09 09:50:21;;;;;;;10.23;8.00;;;18.30;68.90;;;18.24;57.12;98428.59;4911722;29;20068;-40
2022/05/09 09:52:55;;;;;;;8.43;7.45;;;18.40;68.70;;;18.29;56.46;98433.41;4912286;29;20606;-41
2022/05/09 09:55:37;;;;;;;7.78;6.43;;;18.50;68.40;;;18.38;54.69;98429.56;4916612;29;20050;-40
2022/05/09 09:58:26;;;;;;;6.82;6.13;;;18.50;65.80;;;18.44;54.45;98433.38;4914188;29;20059;-40
2022/05/09 10:01:21;;;;;;;10.73;8.40;;;18.70;64.90;;;18.52;55.31;98432.41;4914202;29;20067;-41
2022/05/09 10:04:10;;;;;;;10.30;8.23;;;18.70;64.70;;;18.57;55.31;98425.41;4914261;29;20070;-40
2022/05/09 10:06:59;;;;;;;8.80;7.90;;;18.80;65.00;;;18.62;54.95;98422.94;4914389;29;20066;-40
2022/05/09 10:09:35;;;;;;;11.45;8.57;;;18.80;64.20;;;18.73;55.08;98426.13;4913688;29;20048;-40
2022/05/09 10:12:24;;;;;;;9.00;8.18;;;18.90;65.70;;;18.76;54.61;98423.06;4912841;29;20051;-40
2022/05/09 10:14:54;;;;;;;10.32;9.32;;;19.00;64.30;;;18.74;54.87;98422.41;4912845;29;20051;-41
2022/05/09 10:17:29;;;;;;;9.48;8.25;;;19.00;64.80;;;18.79;54.99;98414.59;4914185;29;20051;-41
2022/05/09 10:20:00;;;;;;;9.57;8.18;;;19.10;65.30;;;18.82;54.51;98412.34;4914197;29;20067;-41
2022/05/09 10:25:30;;;;;;;9.30;7.88;;;19.20;63.20;;;18.98;54.07;98413.09;4914659;29;20056;-41
2022/05/09 10:28:14;;;;;;;9.50;8.48;;;19.30;63.50;;;18.98;53.44;98418.47;4912631;29;20131;-41
2022/05/09 10:30:47;;;;;;;10.32;9.40;;;19.30;62.00;;;19.00;53.51;98408.31;4914733;29;20400;-41
2022/05/09 10:33:55;;;;;;;12.23;9.50;;;19.30;62.80;;;18.98;53.44;98408.53;4913621;29;20056;-44
2022/05/09 10:36:43;;;;;;;8.75;7.80;;;19.30;61.80;;;19.07;53.68;98414.63;4915172;29;20070;-41
2022/05/09 10:39:26;;;;;;;8.13;6.85;;;19.30;62.70;;;19.16;53.68;98401.81;4913927;29;20048;-43